Time;durP1;ratioP1;P1;durP2;ratioP2;P2;SDS_P1;SDS_P2;PMS_P1;PMS_P2;Temp;Humidity;BMP_temperature;BMP_pressure;BME280_temperature;BME280_humidity;BME280_pressure;Samples;Min_cycle;Max_cycle;Signal;HPM_P1;HPM_P2
2022/02/07 00:01:36;;;;;;;24.50;6.87;;;;;;;0.28;100.00;100747.00;1582691;90;21548;-83
2022/02/07 00:03:59;;;;;;;17.73;6.87;;;;;;;0.25;100.00;100743.41;1579637;90;21170;-83
2022/02/07 00:06:25;;;;;;;21.45;7.00;;;;;;;0.21;100.00;100740.83;1579329;90;21052;-83
2022/02/07 00:08:52;;;;;;;24.77;7.90;;;;;;;0.17;100.00;100730.27;1582794;90;21111;-83
2022/02/07 00:11:19;;;;;;;27.75;8.78;;;;;;;0.08;100.00;100727.42;1582314;90;21092;-83
2022/02/07 00:13:45;;;;;;;38.67;8.95;;;;;;;0.03;100.00;100723.18;1582521;90;20993;-83
2022/02/07 00:16:11;;;;;;;27.20;7.90;;;;;;;0.00;100.00;100716.45;1562474;90;21630;-83
2022/02/07 00:18:38;;;;;;;29.12;8.93;;;;;;;-0.05;100.00;100711.70;1562590;90;21178;-84
2022/02/07 00:21:04;;;;;;;27.05;8.15;;;;;;;-0.06;100.00;100704.78;1582583;90;21080;-83
2022/02/07 00:23:31;;;;;;;27.42;8.58;;;;;;;-0.06;100.00;100706.10;1582856;90;21562;-84
2022/02/07 00:25:57;;;;;;;25.88;8.93;;;;;;;-0.11;100.00;100689.94;1582967;90;21070;-84
2022/02/07 00:28:23;;;;;;;29.90;8.70;;;;;;;-0.10;100.00;100691.58;1582978;90;20913;-84
2022/02/07 00:30:49;;;;;;;25.77;8.73;;;;;;;-0.09;100.00;100689.27;1583276;90;21768;-84
2022/02/07 00:33:15;;;;;;;26.77;8.15;;;;;;;-0.05;100.00;100679.11;1582731;90;21049;-83
2022/02/07 00:35:41;;;;;;;19.82;7.22;;;;;;;-0.03;100.00;100681.04;1582947;90;21105;-84
2022/02/07 00:38:16;;;;;;;21.25;7.00;;;;;;;-0.02;100.00;100677.41;1582711;90;21109;-83
2022/02/07 00:40:57;;;;;;;21.65;7.22;;;;;;;0.01;100.00;100669.59;1579402;90;21152;-83
2022/02/07 00:45:53;;;;;;;20.65;7.45;;;;;;;0.06;100.00;100657.90;1582613;90;21546;-83
2022/02/07 00:48:22;;;;;;;18.60;6.90;;;;;;;0.07;100.00;100650.28;1579279;90;21049;-84
2022/02/07 00:50:45;;;;;;;16.95;7.15;;;;;;;0.08;100.00;100649.27;1579181;90;21018;-83
2022/02/07 00:53:13;;;;;;;21.10;7.20;;;;;;;0.12;100.00;100651.36;1582354;90;21061;-83
2022/02/07 00:55:39;;;;;;;20.55;7.40;;;;;;;0.17;100.00;100648.13;1578921;90;21041;-83
2022/02/07 00:58:05;;;;;;;17.02;6.70;;;;;;;0.21;100.00;100643.59;1601337;88;21488;-83
2022/02/07 01:00:32;;;;;;;21.50;7.40;;;;;;;0.26;100.00;100640.35;1626285;88;20967;-83
2022/02/07 01:02:59;;;;;;;17.90;7.25;;;;;;;0.30;100.00;100631.54;1625959;88;21085;-83
2022/02/07 01:05:26;;;;;;;21.70;8.10;;;;;;;0.34;100.00;100625.64;1625796;88;21042;-83
2022/02/07 01:07:53;;;;;;;21.82;7.95;;;;;;;0.38;100.00;100621.62;1626058;88;21210;-83
2022/02/07 01:10:28;;;;;;;25.72;8.03;;;;;;;0.43;100.00;100623.67;1625787;88;21583;-83
2022/02/07 01:23:57;;;;;;;23.50;8.30;;;;;;;0.67;100.00;100606.50;1625910;88;21081;-83
2022/02/07 01:55:41;;;;;;;27.42;8.48;;;;;;;1.05;100.00;100574.27;1588034;90;22036;-83
2022/02/07 01:58:08;;;;;;;24.20;8.88;;;;;;;1.07;100.00;100565.61;1587713;90;21103;-83
2022/02/07 02:00:37;;;;;;;26.60;8.18;;;;;;;1.10;100.00;100565.21;1588109;90;21104;-83
2022/02/07 02:03:03;;;;;;;25.85;8.18;;;;;;;1.11;100.00;100561.53;1587879;90;21176;-83
2022/02/07 02:05:37;;;;;;;21.57;7.58;;;;;;;1.13;100.00;100563.48;1587595;90;21090;-83
2022/02/07 02:08:00;;;;;;;26.15;8.83;;;;;;;1.16;100.00;100560.44;1587800;90;21251;-83
2022/02/07 02:10:26;;;;;;;26.48;8.50;;;;;;;1.19;100.00;100560.03;1587572;88;20914;-83
2022/02/07 02:13:09;;;;;;;29.42;8.50;;;;;;;1.23;100.00;100557.28;1587976;90;21919;-83
2022/02/07 02:21:13;;;;;;;26.65;8.35;;;;;;;1.31;100.00;100545.16;1578668;90;21081;-83
2022/02/07 02:34:17;;;;;;;26.65;8.50;;;;;;;1.42;100.00;100529.17;1526977;93;21054;-83
2022/02/07 02:46:31;;;;;;;22.32;7.33;;;;;;;1.51;100.00;100499.27;1542745;91;21091;-83
2022/02/07 02:49:01;;;;;;;22.60;7.80;;;;;;;1.54;100.00;100501.52;1543287;93;21059;-83
2022/02/07 02:51:25;;;;;;;22.95;8.20;;;;;;;1.56;100.00;100500.80;1539760;93;21066;-83
2022/02/07 02:53:51;;;;;;;18.65;7.67;;;;;;;1.58;100.00;100488.13;1542937;93;21087;-83
2022/02/07 02:56:17;;;;;;;26.42;8.05;;;;;;;1.59;100.00;100484.47;1529437;93;21032;-83
2022/02/07 02:58:43;;;;;;;25.75;8.63;;;;;;;1.61;100.00;100486.39;1526449;93;21660;-83
2022/02/07 03:01:09;;;;;;;31.82;9.28;;;;;;;1.59;100.00;100482.62;1519084;93;20971;-83
2022/02/07 03:03:35;;;;;;;29.20;10.60;;;;;;;1.57;100.00;100480.67;1680675;81;21264;-82
2022/02/07 03:06:01;;;;;;;32.85;10.65;;;;;;;1.56;100.00;100478.23;1755427;81;21101;-82
2022/02/07 03:08:27;;;;;;;38.42;11.95;;;;;;;1.54;100.00;100476.28;1755998;81;20868;-83
2022/02/07 03:11:11;;;;;;;41.15;12.47;;;;;;;1.52;100.00;100475.14;1755793;81;20940;-83
2022/02/07 03:13:46;;;;;;;40.28;12.80;;;;;;;1.54;100.00;100470.97;1753431;81;21518;-82
2022/02/07 03:18:45;;;;;;;47.00;14.55;;;;;;;1.53;100.00;100449.40;1755390;81;20972;-83
2022/02/07 03:21:11;;;;;;;43.42;13.98;;;;;;;1.55;100.00;100457.48;1755885;81;21617;-83
2022/02/07 03:23:37;;;;;;;42.85;14.75;;;;;;;1.55;100.00;100452.16;1755944;81;20813;-83
2022/02/07 03:26:04;;;;;;;45.43;14.60;;;;;;;1.57;100.00;100450.64;1755936;81;21003;-83
2022/02/07 03:28:30;;;;;;;38.75;14.50;;;;;;;1.57;100.00;100447.47;1755499;81;21195;-83
2022/02/07 03:30:56;;;;;;;43.65;14.45;;;;;;;1.59;100.00;100449.42;1755750;81;21697;-83
2022/02/07 03:33:23;;;;;;;47.53;15.23;;;;;;;1.61;100.00;100441.75;1755695;81;21018;-82
2022/02/07 03:35:49;;;;;;;46.95;14.30;;;;;;;1.61;100.00;100449.20;1757394;80;20977;-83
2022/02/07 03:38:15;;;;;;;45.15;14.28;;;;;;;1.65;100.00;100450.94;1758430;80;20907;-83
2022/02/07 03:40:41;;;;;;;48.02;15.28;;;;;;;1.64;100.00;100454.63;1758463;80;20984;-83
2022/02/07 03:43:07;;;;;;;58.02;15.00;;;;;;;1.63;100.00;100450.34;1758173;81;21565;-82
2022/02/07 03:45:33;;;;;;;43.45;14.70;;;;;;;1.63;100.00;100447.17;1758664;80;20962;-83
2022/02/07 03:47:59;;;;;;;41.58;14.75;;;;;;;1.63;100.00;100449.02;1758233;80;21061;-82
2022/02/07 03:50:25;;;;;;;40.28;13.75;;;;;;;1.64;100.00;100450.64;1758499;80;20990;-83
2022/02/07 03:52:51;;;;;;;45.55;14.15;;;;;;;1.66;100.00;100445.44;1758364;80;21072;-83
2022/02/07 03:55:18;;;;;;;50.52;14.45;;;;;;;1.67;100.00;100442.26;1758024;80;20979;-83
2022/02/07 03:57:44;;;;;;;39.70;12.33;;;;;;;1.69;100.00;100440.22;1758415;80;21006;-83
2022/02/07 04:00:12;;;;;;;44.80;12.73;;;;;;;1.71;100.00;100442.98;1752853;80;21009;-82
2022/02/07 04:02:43;;;;;;;39.33;12.55;;;;;;;1.71;100.00;100442.98;1758411;80;21594;-83
2022/02/07 04:07:38;;;;;;;35.52;12.58;;;;;;;1.71;100.00;100434.20;1692649;83;21085;-83
2022/02/07 04:10:05;;;;;;;35.75;12.70;;;;;;;1.69;100.00;100439.70;1692898;84;20990;-83
2022/02/07 04:12:31;;;;;;;38.33;12.75;;;;;;;1.69;100.00;100437.05;1692889;84;21065;-83
2022/02/07 04:14:58;;;;;;;45.30;12.50;;;;;;;1.73;100.00;100432.14;1692835;84;21050;-83
2022/02/07 04:17:27;;;;;;;41.83;12.68;;;;;;;1.75;100.00;100435.42;1669632;84;21133;-83
2022/02/07 04:19:57;;;;;;;33.58;11.80;;;;;;;1.76;100.00;100433.05;1692301;84;21535;-82
2022/02/07 04:22:19;;;;;;;39.03;12.50;;;;;;;1.80;100.00;100428.47;1689099;84;21074;-82
2022/02/07 04:24:45;;;;;;;70.95;24.15;;;;;;;1.83;100.00;100428.57;1693019;84;20923;-83
2022/02/07 04:27:11;;;;;;;47.00;17.35;;;;;;;1.84;100.00;100424.88;1692791;84;20990;-83
2022/02/07 04:29:37;;;;;;;45.30;15.90;;;;;;;1.87;100.00;100427.13;1692876;84;21103;-83
2022/02/07 04:32:04;;;;;;;37.78;13.58;;;;;;;1.90;100.00;100421.39;1692661;84;20986;-82
2022/02/07 04:34:30;;;;;;;40.10;14.73;;;;;;;1.91;100.00;100410.25;1687048;84;21235;-82
2022/02/07 04:36:57;;;;;;;55.83;19.95;;;;;;;1.92;100.00;100407.91;1683160;85;21594;-82
2022/02/07 04:39:23;;;;;;;57.93;16.23;;;;;;;1.97;100.00;100406.27;1682970;85;21065;-83
2022/02/07 04:41:51;;;;;;;43.98;15.48;;;;;;;2.00;100.00;100401.87;1682985;85;21813;-83
2022/02/07 04:44:23;;;;;;;51.80;17.05;;;;;;;2.03;100.00;100399.31;1682634;84;21190;-83
2022/02/07 04:49:41;;;;;;;38.13;12.05;;;;;;;1.98;100.00;100391.14;1683036;85;21062;-83
2022/02/07 04:52:03;;;;;;;35.52;13.85;;;;;;;1.96;100.00;100397.16;1679244;85;21587;-83
2022/02/07 05:02:13;;;;;;;31.30;10.53;;;;;;;1.85;100.00;100399.13;1677713;85;21078;-84
2022/02/07 05:04:37;;;;;;;31.07;10.63;;;;;;;1.84;100.00;100402.81;1714820;80;20976;-83
2022/02/07 05:15:13;;;;;;;43.08;13.72;;;;;;;1.86;100.00;100395.46;1745479;80;21035;-82
2022/02/07 05:17:40;;;;;;;31.60;11.33;;;;;;;1.90;100.00;100390.03;1741223;80;21097;-82
2022/02/07 05:20:09;;;;;;;37.08;11.53;;;;;;;1.94;100.00;100388.58;1747808;81;21183;-82
2022/02/07 05:22:37;;;;;;;34.18;10.98;;;;;;;1.98;100.00;100387.16;1744958;80;21027;-82
2022/02/07 05:25:05;;;;;;;33.98;11.28;;;;;;;2.03;100.00;100383.37;1748392;81;20991;-82
2022/02/07 05:27:31;;;;;;;31.52;10.78;;;;;;;2.07;100.00;100377.11;1751128;80;20983;-82
2022/02/07 05:29:57;;;;;;;32.45;10.55;;;;;;;2.09;100.00;100378.55;1743187;81;20880;-83
2022/02/07 05:32:23;;;;;;;38.50;11.53;;;;;;;2.13;100.00;100374.43;1745075;80;21872;-82
2022/02/07 05:34:51;;;;;;;39.90;11.18;;;;;;;2.18;100.00;100374.62;1736917;81;20964;-82
2022/02/07 05:37:18;;;;;;;40.52;13.75;;;;;;;2.21;100.00;100361.42;1714197;82;21507;-82
2022/02/07 05:39:49;;;;;;;34.53;10.08;;;;;;;2.23;100.00;100362.02;1732222;81;21547;-82
2022/02/07 05:42:12;;;;;;;44.95;15.03;;;;;;;2.27;100.00;100364.57;1741435;80;21063;-82
2022/02/07 05:44:39;;;;;;;31.93;11.20;;;;;;;2.33;100.00;100363.73;1733977;82;21162;-82
2022/02/07 05:47:06;;;;;;;30.60;10.70;;;;;;;2.41;100.00;100367.97;1734006;81;21038;-82
2022/02/07 05:49:34;;;;;;;32.80;10.40;;;;;;;2.45;100.00;100362.03;1724033;81;21024;-82
2022/02/07 05:52:00;;;;;;;31.23;10.63;;;;;;;2.51;100.00;100367.02;1694426;83;21062;-82
2022/02/07 05:54:26;;;;;;;27.40;9.50;;;;;;;2.56;100.00;100365.87;1702152;83;21006;-82
2022/02/07 05:56:51;;;;;;;36.23;11.97;;;;;;;2.62;100.00;100370.34;1682214;83;21103;-82
2022/02/07 05:59:17;;;;;;;29.55;9.83;;;;;;;2.65;100.00;100363.27;1691408;83;21733;-82
2022/02/07 06:01:43;;;;;;;35.05;10.35;;;;;;;2.71;100.00;100363.73;1680413;83;20998;-81
2022/02/07 06:04:09;;;;;;;27.42;9.68;;;;;;;2.79;100.00;100366.64;1686949;83;20899;-82
2022/02/07 06:06:35;;;;;;;35.33;11.28;;;;;;;2.84;100.00;100361.50;1684849;83;21026;-82
2022/02/07 06:09:01;;;;;;;40.23;11.63;;;;;;;2.89;100.00;100358.20;1685778;83;21171;-82
2022/02/07 06:11:27;;;;;;;29.15;9.55;;;;;;;2.95;100.00;100362.14;1693044;83;21109;-82
2022/02/07 06:13:53;;;;;;;27.42;8.45;;;;;;;2.97;100.00;100351.27;1691075;83;20978;-83
2022/02/07 06:16:19;;;;;;;31.35;10.43;;;;;;;3.02;100.00;100355.44;1666912;83;21062;-82
2022/02/07 06:18:49;;;;;;;35.30;9.80;;;;;;;3.08;100.00;100357.23;1698822;83;20928;-82
2022/02/07 06:21:18;;;;;;;31.17;9.38;;;;;;;3.14;100.00;100355.55;1688729;83;21140;-81
2022/02/07 06:23:44;;;;;;;38.00;12.85;;;;;;;3.18;100.00;100352.25;1686236;83;21121;-81
2022/02/07 06:26:10;;;;;;;26.80;8.90;;;;;;;3.21;100.00;100352.34;1682993;83;21007;-81
2022/02/07 06:28:36;;;;;;;32.40;9.80;;;;;;;3.22;100.00;100350.48;1690727;83;21165;-82
2022/02/07 06:31:02;;;;;;;29.50;10.43;;;;;;;3.24;100.00;100353.23;1694688;83;21155;-80
2022/02/07 06:33:28;;;;;;;32.03;10.13;;;;;;;3.27;100.00;100354.66;1680552;83;21175;-80
2022/02/07 06:35:54;;;;;;;30.57;9.10;;;;;;;3.30;100.00;100352.36;1661177;83;20912;-81
2022/02/07 06:38:20;;;;;;;28.95;9.05;;;;;;;3.33;100.00;100351.93;1690023;83;21145;-81
2022/02/07 06:40:46;;;;;;;26.50;8.53;;;;;;;3.38;100.00;100350.77;1684952;83;20883;-81
2022/02/07 06:43:12;;;;;;;25.20;8.23;;;;;;;3.45;100.00;100342.70;1679982;83;20911;-81
2022/02/07 06:45:38;;;;;;;26.65;9.20;;;;;;;3.47;100.00;100343.80;1686709;82;21902;-82
2022/02/07 06:48:05;;;;;;;27.00;8.55;;;;;;;3.51;100.00;100341.02;1673643;82;21000;-82
2022/02/07 06:50:31;;;;;;;25.43;7.70;;;;;;;3.51;100.00;100339.16;1746559;82;21063;-82
2022/02/07 06:52:57;;;;;;;22.65;7.08;;;;;;;3.50;100.00;100331.38;1748097;81;20841;-81
2022/02/07 06:55:23;;;;;;;25.43;8.30;;;;;;;3.53;100.00;100335.77;1747389;82;20877;-82
2022/02/07 06:57:49;;;;;;;23.77;7.25;;;;;;;3.57;100.00;100329.48;1745398;82;21195;-82
2022/02/07 07:00:17;;;;;;;26.30;7.37;;;;;;;3.61;100.00;100330.14;1746632;82;20948;-82
2022/02/07 07:02:43;;;;;;;21.80;7.67;;;;;;;3.66;100.00;100328.68;1741922;80;21054;-82
2022/02/07 07:05:14;;;;;;;23.52;7.85;;;;;;;3.74;100.00;100329.20;1746523;82;21051;-82
2022/02/07 07:07:39;;;;;;;20.80;7.37;;;;;;;3.79;100.00;100331.19;1744300;82;46727;-81
2022/02/07 07:10:08;;;;;;;18.30;6.55;;;;;;;3.83;100.00;100325.20;1738597;82;21095;-82
2022/02/07 07:12:35;;;;;;;29.10;7.78;;;;;;;3.87;100.00;100327.72;1746057;81;21954;-81
2022/02/07 07:15:11;;;;;;;23.98;7.58;;;;;;;3.94;100.00;100321.49;1748083;82;21016;-82
2022/02/07 07:17:34;;;;;;;30.25;9.03;;;;;;;4.03;100.00;100310.33;1745562;81;21000;-82
2022/02/07 07:20:05;;;;;;;24.87;7.33;;;;;;;4.10;100.00;100308.91;1748595;81;21035;-82
2022/02/07 07:22:33;;;;;;;20.55;6.58;;;;;;;4.18;100.00;100301.13;1743726;82;21888;-82
2022/02/07 07:25:00;;;;;;;18.00;6.50;;;;;;;4.20;100.00;100305.17;1744808;80;21505;-81
2022/02/07 07:27:30;;;;;;;14.15;5.83;;;;;;;4.25;100.00;100298.66;1748043;82;21035;-82
2022/02/07 07:29:55;;;;;;;20.48;5.95;;;;;;;4.30;100.00;100297.98;1708239;82;21655;-82
2022/02/07 07:32:25;;;;;;;17.17;5.47;;;;;;;4.29;100.00;100305.19;1747700;81;20999;-82
2022/02/07 07:34:49;;;;;;;18.35;6.08;;;;;;;4.31;100.00;100311.61;1756071;80;21000;-81
2022/02/07 07:37:16;;;;;;;18.92;6.47;;;;;;;4.31;100.00;100301.75;1782237;80;21023;-82
2022/02/07 07:39:46;;;;;;;17.57;6.10;;;;;;;4.37;100.00;100292.55;1785508;80;21307;-81
2022/02/07 07:43:21;;;;;;;;;;;;;;;;;;;;;
2022/02/07 08:10:40;;;;;;;27.15;8.50;;;;;;;4.52;100.00;100273.75;1341217;105;21112;-80
2022/02/07 08:13:20;;;;;;;;;;;;;;;;;;;;;
2022/02/07 08:19:27;;;;;;;23.15;6.75;;;;;;;4.45;100.00;100269.05;1299165;108;21234;-80
2022/02/07 08:29:57;;;;;;;;;;;;;;;;;;;;;
2022/02/07 08:33:16;;;;;;;28.20;7.55;;;;;;;4.30;100.00;100253.98;1222692;114;21259;-80
2022/02/07 08:36:22;;;;;;;;;;;;;;;;;;;;;
2022/02/07 08:39:42;;;;;;;30.23;8.43;;;;;;;4.43;100.00;100251.63;1241401;113;21331;-80
2022/02/07 08:42:23;;;;;;;28.83;8.55;;;;;;;4.48;100.00;100255.25;1240618;115;21187;-80
2022/02/07 08:45:24;;;;;;;29.52;7.92;;;;;;;4.51;100.00;100251.31;1235709;115;21308;-80
2022/02/07 08:49:07;;;;;;;20.77;6.70;;;;;;;4.51;100.00;100249.45;1226426;113;21521;-81
2022/02/07 08:51:39;;;;;;;19.42;6.05;;;;;;;4.53;100.00;100247.91;1237438;115;21232;-82
2022/02/07 08:54:21;;;;;;;;;;;;;;;;;;;;;
2022/02/07 09:05:35;;;;;;;;;;;;;;;4.39;100.00;100231.80;1298442;110;21692;-81
2022/02/07 09:20:31;;;;;;;13.60;5.33;;;;;;;4.54;100.00;100244.99;1249069;113;21193;-82
2022/02/07 09:23:03;;;;;;;19.95;5.53;;;;;;;4.62;100.00;100235.86;1242395;114;21163;-81
2022/02/07 09:31:52;;;;;;;17.82;5.08;;;;;;;4.89;100.00;100232.23;1278338;109;21194;-81
2022/02/07 09:34:25;;;;;;;18.05;5.70;;;;;;;4.86;100.00;100234.55;1258946;112;21217;-81
2022/02/07 09:37:00;;;;;;;11.73;4.95;;;;;;;4.85;100.00;100228.38;1289471;110;21229;-81
2022/02/07 09:39:42;;;;;;;;;;;;;;;;;;;;;
2022/02/07 09:42:46;;;;;;;19.65;6.37;;;;;;;4.84;100.00;100222.76;1306915;109;21307;-81
2022/02/07 09:45:18;;;;;;;17.92;5.45;;;;;;;4.87;100.00;100222.30;1282076;110;21245;-81
2022/02/07 09:49:32;;;;;;;22.30;5.35;;;;;;;4.96;100.00;100224.91;1284566;110;21173;-82
2022/02/07 09:52:04;;;;;;;19.70;5.80;;;;;;;5.12;100.00;100213.27;1259226;111;21116;-82
2022/02/07 09:54:35;;;;;;;17.00;5.22;;;;;;;5.27;100.00;100212.26;1308529;109;21332;-82
2022/02/07 10:35:50;;;;;;;22.40;8.10;;;;;;;5.75;100.00;100152.28;1188646;117;21168;-81
2022/02/07 10:38:15;;;;;;;25.92;7.87;;;;;;;5.70;100.00;100148.98;1200879;118;21404;-83
2022/02/07 10:46:19;;;;;;;206.60;79.77;;;;;;;5.82;100.00;100140.09;1241780;114;21659;-83
2022/02/07 10:48:55;;;;;;;34.27;13.35;;;;;;;5.86;100.00;100130.03;1277826;111;21589;-83
2022/02/07 10:51:31;;;;;;;28.20;10.85;;;;;;;5.85;100.00;100127.09;1258554;110;21353;-83
2022/02/07 10:54:07;;;;;;;21.50;7.83;;;;;;;5.97;100.00;100128.39;1268894;109;21259;-83
2022/02/07 10:56:50;;;;;;;31.17;9.78;;;;;;;6.05;100.00;100128.51;1248997;112;21231;-83
2022/02/07 10:59:24;;;;;;;24.37;9.18;;;;;;;6.14;100.00;100119.84;1277275;111;21208;-83
2022/02/07 11:25:01;;;;;;;;;;;;;;;5.95;100.00;100128.34;1275558;111;21179;-82
2022/02/07 11:27:40;;;;;;;28.75;7.75;;;;;;;5.87;100.00;100119.61;1305629;109;20355;-82
2022/02/07 11:30:15;;;;;;;21.48;7.60;;;;;;;5.83;100.00;100115.00;1303307;109;21649;-81
2022/02/07 11:33:14;;;;;;;21.52;7.85;;;;;;;5.83;100.00;100115.81;1301943;109;21459;-81
2022/02/07 11:36:15;;;;;;;24.05;7.70;;;;;;;5.85;100.00;100112.88;1234201;111;21278;-83
2022/02/07 11:39:01;;;;;;;20.45;6.80;;;;;;;5.84;100.00;100104.59;1248673;111;21773;-82
2022/02/07 11:41:30;;;;;;;29.07;8.90;;;;;;;5.83;100.00;100102.44;1194207;120;21205;-82
2022/02/07 11:43:58;;;;;;;26.55;7.25;;;;;;;5.88;100.00;100105.72;1196643;115;21241;-82
2022/02/07 11:46:36;;;;;;;26.25;6.53;;;;;;;5.86;100.00;100097.14;1230342;115;21205;-82
2022/02/07 11:49:10;;;;;;;24.63;7.10;;;;;;;5.84;100.00;100098.70;1237705;114;21586;-82
2022/02/07 11:51:45;;;;;;;18.98;6.08;;;;;;;5.84;100.00;100097.37;1232057;115;21205;-82
2022/02/07 11:54:10;;;;;;;23.70;6.97;;;;;;;5.85;100.00;100103.02;1248509;113;21235;-82
2022/02/07 11:56:52;;;;;;;17.67;6.90;;;;;;;5.70;100.00;100092.03;1296075;107;21192;-82
2022/02/07 12:02:08;;;;;;;16.65;6.15;;;;;;;5.70;100.00;100098.19;1316600;108;21197;-82
2022/02/07 12:04:49;;;;;;;17.80;6.80;;;;;;;5.71;100.00;100100.36;1245413;112;21151;-82
2022/02/07 12:07:37;;;;;;;17.57;6.58;;;;;;;5.69;100.00;100097.10;1231078;116;21628;-82
2022/02/07 12:12:47;;;;;;;18.52;6.15;;;;;;;5.75;100.00;100102.02;1228825;115;21294;-83
2022/02/07 12:15:27;;;;;;;22.27;6.07;;;;;;;5.74;100.00;100099.07;1235490;114;21187;-82
2022/02/07 12:18:04;;;;;;;26.87;7.25;;;;;;;5.73;100.00;100100.91;1239203;115;22607;-82
2022/02/07 12:20:37;;;;;;;24.05;7.42;;;;;;;5.75;100.00;100096.14;1241668;114;21756;-82
2022/02/07 12:26:15;;;;;;;37.83;12.45;;;;;;;5.75;100.00;100108.70;1264964;112;21176;-82
2022/02/07 12:28:56;;;;;;;34.13;9.98;;;;;;;5.75;100.00;100114.86;1260442;111;21199;-83
2022/02/07 12:31:35;;;;;;;24.15;9.25;;;;;;;5.78;100.00;100102.88;1279184;109;21189;-82
2022/02/07 12:34:18;;;;;;;;;;;;;;;;;;;;;
2022/02/07 12:36:44;;;;;;;;;;;;;;;;;;;;;
2022/02/07 12:39:21;;;;;;;30.57;9.40;;;;;;;5.86;100.00;100097.95;1281305;108;21739;-82
2022/02/07 12:45:06;;;;;;;;;;;;;;;;;;;;;
2022/02/07 13:26:12;;;;;;;;;;;;;;;;;;;;;
2022/02/07 13:28:45;;;;;;;23.57;8.05;;;;;;;5.44;100.00;100042.14;1264698;112;21186;-82
2022/02/07 13:35:27;;;;;;;;;;;;;;;;;;;;;
2022/02/07 13:37:51;;;;;;;23.80;8.15;;;;;;;5.38;100.00;100028.41;1247031;113;21900;-86
2022/02/07 13:40:24;;;;;;;23.22;7.58;;;;;;;5.39;100.00;100023.34;1257609;111;21259;-82
2022/02/07 13:42:59;;;;;;;27.37;8.53;;;;;;;5.33;100.00;100011.47;1271875;109;21626;-84
2022/02/07 13:45:32;;;;;;;21.62;8.20;;;;;;;5.28;100.00;100017.52;1228875;114;21803;-83
2022/02/07 13:53:13;;;;;;;20.60;7.95;;;;;;;5.37;100.00;100008.59;1248061;114;21753;-85
2022/02/07 13:55:43;;;;;;;18.67;7.92;;;;;;;5.41;100.00;100015.07;1260062;110;21230;-85
2022/02/07 13:58:22;;;;;;;17.73;7.53;;;;;;;5.41;100.00;100019.91;1245536;113;21203;-85
2022/02/07 14:00:59;;;;;;;23.38;7.70;;;;;;;5.42;100.00;100024.73;1235975;113;21212;-85
2022/02/07 14:03:46;;;;;;;25.85;8.83;;;;;;;5.34;100.00;100007.73;1234156;114;21243;-85
2022/02/07 14:06:20;;;;;;;22.48;8.10;;;;;;;5.39;100.00;100018.00;1208250;113;21275;-85
2022/02/07 14:08:51;;;;;;;;;;;;;;;5.33;100.00;100028.84;1196635;117;21413;-85
2022/02/07 14:11:25;;;;;;;26.15;8.68;;;;;;;5.26;100.00;100027.63;1193327;117;20273;-84
2022/02/07 14:14:06;;;;;;;30.48;9.25;;;;;;;5.26;100.00;100028.16;1184239;119;21228;-85
2022/02/07 14:16:39;;;;;;;20.52;8.78;;;;;;;5.24;100.00;100032.41;1228383;116;21261;-84
2022/02/07 14:19:12;;;;;;;;;;;;;;;5.20;100.00;100026.72;1217832;118;21161;-84
2022/02/07 14:21:45;;;;;;;25.72;10.00;;;;;;;5.16;100.00;100025.58;1217090;115;20226;-85
2022/02/07 14:24:26;;;;;;;;;;;;;;;;;;;;;
2022/02/07 14:26:46;;;;;;;21.35;9.08;;;;;;;5.11;100.00;100017.99;1260992;113;21279;-85
2022/02/07 14:29:13;;;;;;;22.85;8.85;;;;;;;5.10;100.00;100018.52;1261369;113;22604;-85
2022/02/07 14:31:45;;;;;;;27.37;9.30;;;;;;;5.06;100.00;100012.55;1260136;112;21150;-85
2022/02/07 14:34:12;;;;;;;29.30;9.60;;;;;;;5.04;100.00;99999.98;1263094;112;21237;-85
2022/02/07 14:36:42;;;;;;;25.95;10.18;;;;;;;5.00;100.00;100000.98;1270108;112;21168;-85
2022/02/07 14:39:08;;;;;;;28.32;9.85;;;;;;;4.95;100.00;100003.55;1285388;110;21186;-85
2022/02/07 14:41:37;;;;;;;28.17;10.50;;;;;;;4.90;100.00;99994.90;1292049;110;21269;-85
2022/02/07 14:44:19;;;;;;;27.35;9.68;;;;;;;4.86;100.00;99988.42;1292524;109;21242;-85
2022/02/07 14:46:50;;;;;;;25.77;10.80;;;;;;;4.78;100.00;99986.92;1300067;108;21174;-85
2022/02/07 14:49:09;;;;;;;55.40;15.48;;;;;;;4.70;100.00;99999.83;1282750;109;21603;-85
2022/02/07 14:51:42;;;;;;;42.27;12.15;;;;;;;4.60;100.00;100007.11;1310185;108;21154;-85
2022/02/07 14:54:10;;;;;;;32.85;11.65;;;;;;;4.53;100.00;100003.23;1295535;109;21259;-83
2022/02/07 14:56:38;;;;;;;32.38;11.22;;;;;;;4.47;100.00;100006.84;1294826;109;21151;-83
2022/02/07 14:59:06;;;;;;;29.00;11.53;;;;;;;4.42;100.00;100009.39;1294342;107;21652;-83
2022/02/07 15:01:40;;;;;;;28.80;10.48;;;;;;;4.35;100.00;100010.55;1294805;109;21566;-83
2022/02/07 15:04:06;;;;;;;33.15;10.35;;;;;;;4.28;100.00;100005.34;1277496;111;21178;-83
2022/02/07 15:06:32;;;;;;;32.03;10.58;;;;;;;4.23;100.00;100012.69;1272639;109;21336;-83
2022/02/07 15:09:03;;;;;;;31.35;11.15;;;;;;;4.19;100.00;100005.41;1278979;111;21047;-86
2022/02/07 15:11:29;;;;;;;28.07;10.05;;;;;;;4.17;100.00;100007.48;1273150;112;21218;-84
2022/02/07 15:13:55;;;;;;;29.77;10.60;;;;;;;4.07;100.00;100002.21;1278481;111;21275;-84
2022/02/07 15:16:22;;;;;;;31.55;11.57;;;;;;;4.02;100.00;99993.28;1293985;107;21568;-84
2022/02/07 15:18:51;;;;;;;26.73;11.60;;;;;;;3.99;100.00;99992.41;1344558;103;21178;-84
2022/02/07 15:21:17;;;;;;;27.35;11.00;;;;;;;3.95;100.00;99992.59;1404777;100;21727;-84
2022/02/07 15:23:43;;;;;;;30.02;10.90;;;;;;;3.87;100.00;99995.88;1402119;100;21071;-84
2022/02/07 15:26:11;;;;;;;33.92;11.95;;;;;;;3.83;100.00;99990.73;1405320;100;21612;-84
2022/02/07 15:28:44;;;;;;;31.52;11.68;;;;;;;3.81;100.00;99990.13;1399932;100;21852;-84
2022/02/07 15:31:08;;;;;;;30.43;11.48;;;;;;;3.77;100.00;99990.31;1398760;100;21701;-83
2022/02/07 15:33:43;;;;;;;29.65;11.53;;;;;;;3.69;100.00;99991.98;1415272;101;21181;-83
2022/02/07 15:36:11;;;;;;;35.33;12.18;;;;;;;3.62;100.00;99993.95;1402185;99;22696;-84
2022/02/07 15:38:41;;;;;;;32.60;10.93;;;;;;;3.55;100.00;99987.89;1402968;99;21220;-84
2022/02/07 15:41:07;;;;;;;36.25;12.58;;;;;;;3.46;100.00;99971.95;1415035;99;21693;-84
2022/02/07 15:43:34;;;;;;;39.67;13.65;;;;;;;3.40;100.00;99968.34;1415694;100;22112;-84
2022/02/07 15:46:04;;;;;;;35.75;12.20;;;;;;;3.34;100.00;99962.08;1418919;101;21031;-84
2022/02/07 15:48:35;;;;;;;31.33;11.48;;;;;;;3.29;100.00;99947.30;1419239;101;21111;-84
2022/02/07 15:51:08;;;;;;;30.27;11.43;;;;;;;3.24;100.00;99939.20;1401705;99;21675;-83
2022/02/07 15:53:46;;;;;;;37.50;11.18;;;;;;;3.20;100.00;99944.67;1366754;103;21582;-83
2022/02/07 15:56:29;;;;;;;;;;;;;;;;;;;;;
2022/02/07 15:58:50;;;;;;;34.38;11.95;;;;;;;3.11;100.00;99954.83;1346468;104;21075;-83
2022/02/07 16:01:17;;;;;;;55.10;16.32;;;;;;;3.06;100.00;99957.38;1370500;102;21706;-84
2022/02/07 16:03:45;;;;;;;38.78;13.15;;;;;;;3.03;100.00;99959.66;1352283;102;21082;-88
2022/02/07 16:06:16;;;;;;;44.20;13.50;;;;;;;2.99;100.00;99967.28;1357633;103;21085;-86
2022/02/07 16:08:40;;;;;;;31.25;10.03;;;;;;;2.94;100.00;99971.13;1395411;101;21463;-86
2022/02/07 16:11:08;;;;;;;30.70;10.50;;;;;;;2.93;100.00;99958.34;1399720;101;21803;-86
2022/02/07 16:13:37;;;;;;;27.73;10.13;;;;;;;2.93;100.00;99959.67;1401561;102;21089;-87
2022/02/07 16:16:06;;;;;;;27.95;10.53;;;;;;;2.92;100.00;99955.41;1401149;100;21158;-86
2022/02/07 16:18:31;;;;;;;40.58;14.33;;;;;;;2.89;100.00;99951.86;1397355;101;21121;-86
2022/02/07 16:20:58;;;;;;;49.20;14.70;;;;;;;2.86;100.00;99947.52;1398570;102;21734;-86
2022/02/07 16:23:24;;;;;;;41.73;15.58;;;;;;;2.83;100.00;99951.44;1399085;102;21649;-87
2022/02/07 16:25:50;;;;;;;41.65;14.55;;;;;;;2.79;100.00;99956.08;1399257;102;21051;-87
2022/02/07 16:28:17;;;;;;;33.65;11.30;;;;;;;2.76;100.00;99949.88;1379201;102;21232;-86
2022/02/07 16:30:46;;;;;;;31.80;11.73;;;;;;;2.72;100.00;99938.36;1362591;105;21120;-86